Time;durP1;ratioP1;P1;durP2;ratioP2;P2;SDS_P1;SDS_P2;PMS_P1;PMS_P2;Temp;Humidity;BMP_temperature;BMP_pressure;BME280_temperature;BME280_humidity;BME280_pressure;Samples;Min_cycle;Max_cycle;Signal;HPM_P1;HPM_P2
2021/12/14 00:01:50;;;;;;;2.13;1.10;;;;;;;;;;4973889;28;20053;-61
2021/12/14 00:04:19;;;;;;;3.17;1.30;;;;;;;;;;4973361;28;20127;-61
2021/12/14 00:06:47;;;;;;;3.30;1.20;;;;;;;;;;4973165;28;20110;-64
2021/12/14 00:09:24;;;;;;;2.73;1.40;;;;;;;;;;4973172;28;20616;-64
2021/12/14 00:12:11;;;;;;;1.93;1.00;;;;;;;;;;4971863;28;20085;-62
2021/12/14 00:17:11;;;;;;;4.73;1.57;;;;;;;;;;4968028;28;20082;-61
2021/12/14 00:19:38;;;;;;;5.40;2.27;;;;;;;;;;4968571;28;20027;-61
2021/12/14 00:22:18;;;;;;;7.17;3.50;;;;;;;;;;4969938;28;20026;-61
2021/12/14 00:24:45;;;;;;;13.97;4.57;;;;;;;;;;4973680;28;20554;-61
2021/12/14 00:27:13;;;;;;;12.33;4.10;;;;;;;;;;4973263;28;20026;-61
2021/12/14 00:29:44;;;;;;;7.37;3.10;;;;;;;;;;4973264;28;20039;-61
2021/12/14 00:32:16;;;;;;;5.77;1.90;;;;;;;;;;4973340;28;20034;-61
2021/12/14 00:34:44;;;;;;;2.97;1.23;;;;;;;;;;4970380;28;20030;-61
2021/12/14 00:37:15;;;;;;;3.13;0.63;;;;;;;;;;4968010;28;20525;-61
2021/12/14 00:39:43;;;;;;;1.47;0.67;;;;;;;;;;4968167;28;20081;-61
2021/12/14 00:42:10;;;;;;;1.17;0.77;;;;;;;;;;4968388;28;20541;-61
2021/12/14 00:44:37;;;;;;;1.33;0.80;;;;;;;;;;4970924;28;20034;-61
2021/12/14 00:47:04;;;;;;;1.43;0.83;;;;;;;;;;4973338;28;20022;-61
2021/12/14 00:49:31;;;;;;;3.10;0.93;;;;;;;;;;4973510;28;20027;-62
2021/12/14 00:51:58;;;;;;;1.03;0.70;;;;;;;;;;4973101;28;20034;-61
2021/12/14 00:54:25;;;;;;;2.83;1.10;;;;;;;;;;4972802;28;20023;-62
2021/12/14 00:56:52;;;;;;;2.87;1.47;;;;;;;;;;4969979;28;20064;-62
2021/12/14 00:59:20;;;;;;;7.90;2.40;;;;;;;;;;4949097;29;20522;-61
2021/12/14 01:01:50;;;;;;;8.50;2.43;;;;;;;;;;4949059;29;20055;-61
2021/12/14 01:04:20;;;;;;;8.10;2.83;;;;;;;;;;4967605;28;20034;-61
2021/12/14 01:06:47;;;;;;;7.97;3.33;;;;;;;;;;4970288;28;20050;-61
2021/12/14 01:09:16;;;;;;;14.53;5.13;;;;;;;;;;4973004;28;20038;-61
2021/12/14 01:11:46;;;;;;;9.40;3.50;;;;;;;;;;4972408;28;20031;-61
2021/12/14 01:14:45;;;;;;;10.77;3.23;;;;;;;;;;4972790;28;20035;-62
2021/12/14 01:17:42;;;;;;;9.10;2.93;;;;;;;;;;4953370;28;20402;-61
2021/12/14 01:20:11;;;;;;;8.33;3.37;;;;;;;;;;4967770;28;20034;-61
2021/12/14 01:22:42;;;;;;;11.23;3.73;;;;;;;;;;4968082;28;20100;-61
2021/12/14 01:25:14;;;;;;;9.43;3.70;;;;;;;;;;4967955;28;20113;-61
2021/12/14 01:27:50;;;;;;;12.60;3.60;;;;;;;;;;4967412;28;20077;-61
2021/12/14 01:30:21;;;;;;;10.23;3.80;;;;;;;;;;4972292;28;20490;-61
2021/12/14 01:32:49;;;;;;;7.60;3.20;;;;;;;;;;4976523;28;20026;-62
2021/12/14 01:35:19;;;;;;;10.53;3.13;;;;;;;;;;4976518;28;20027;-61
2021/12/14 01:37:59;;;;;;;7.33;2.63;;;;;;;;;;4976294;28;20410;-61
2021/12/14 01:40:53;;;;;;;7.33;1.80;;;;;;;;;;4975740;28;20110;-61
2021/12/14 01:43:16;;;;;;;8.90;2.30;;;;;;;;;;4971156;28;20043;-61
2021/12/14 01:45:43;;;;;;;4.63;1.77;;;;;;;;;;4971666;28;20051;-61
2021/12/14 01:48:10;;;;;;;6.13;1.87;;;;;;;;;;4970717;28;20035;-61
2021/12/14 01:51:06;;;;;;;2.33;1.03;;;;;;;;;;4972075;28;20023;-61
2021/12/14 01:53:52;;;;;;;2.13;1.00;;;;;;;;;;4965504;28;20042;-61
2021/12/14 01:56:21;;;;;;;1.93;0.70;;;;;;;;;;4975903;28;20039;-61
2021/12/14 01:58:52;;;;;;;1.30;0.40;;;;;;;;;;4975855;28;20038;-61
2021/12/14 02:01:21;;;;;;;0.97;0.50;;;;;;;;;;4976184;28;20022;-61
2021/12/14 02:03:50;;;;;;;1.03;0.33;;;;;;;;;;4972444;28;20474;-61
2021/12/14 02:06:20;;;;;;;1.10;0.20;;;;;;;;;;4970925;28;20106;-61
2021/12/14 02:08:46;;;;;;;1.67;0.60;;;;;;;;;;4970236;28;20054;-61
2021/12/14 02:11:13;;;;;;;2.80;0.63;;;;;;;;;;4970982;28;20485;-61
2021/12/14 02:13:42;;;;;;;0.87;0.30;;;;;;;;;;4972838;28;20038;-61
2021/12/14 02:16:10;;;;;;;0.83;0.27;;;;;;;;;;4975573;28;20070;-61
2021/12/14 02:18:37;;;;;;;2.40;0.80;;;;;;;;;;4975347;28;20033;-61
2021/12/14 02:21:05;;;;;;;5.47;1.17;;;;;;;;;;4975546;28;20030;-62
2021/12/14 02:23:33;;;;;;;7.37;1.27;;;;;;;;;;4974916;28;20034;-62
2021/12/14 02:26:02;;;;;;;1.43;0.33;;;;;;;;;;4972780;28;20031;-63
2021/12/14 02:28:28;;;;;;;2.97;0.30;;;;;;;;;;4970424;28;20027;-60
2021/12/14 02:30:57;;;;;;;2.13;0.50;;;;;;;;;;4970651;28;20041;-60
2021/12/14 02:33:28;;;;;;;4.20;0.50;;;;;;;;;;4970746;28;20042;-60
2021/12/14 02:35:55;;;;;;;2.53;0.50;;;;;;;;;;4972722;28;20046;-59
2021/12/14 02:38:22;;;;;;;5.60;1.40;;;;;;;;;;4974628;28;20478;-59
2021/12/14 02:40:54;;;;;;;3.30;0.93;;;;;;;;;;4975370;28;20031;-59
2021/12/14 02:43:27;;;;;;;1.83;0.53;;;;;;;;;;4975391;28;20151;-60
2021/12/14 02:45:54;;;;;;;0.40;0.30;;;;;;;;;;4975320;28;20380;-60
2021/12/14 02:48:24;;;;;;;2.33;0.60;;;;;;;;;;4971925;28;20031;-60
2021/12/14 02:50:51;;;;;;;1.50;0.40;;;;;;;;;;4970023;28;20097;-59
2021/12/14 02:53:17;;;;;;;1.40;0.40;;;;;;;;;;4969806;28;20498;-59
2021/12/14 02:55:44;;;;;;;2.10;0.43;;;;;;;;;;4969428;28;20113;-59
2021/12/14 02:58:11;;;;;;;1.27;0.53;;;;;;;;;;4972092;28;20660;-60
2021/12/14 03:00:40;;;;;;;2.60;0.57;;;;;;;;;;4975069;28;20029;-61
2021/12/14 03:03:08;;;;;;;1.27;0.23;;;;;;;;;;4974653;28;20026;-61
2021/12/14 03:05:37;;;;;;;1.77;0.40;;;;;;;;;;4974756;28;20033;-60
2021/12/14 03:08:06;;;;;;;1.00;0.50;;;;;;;;;;4974663;28;20081;-61
2021/12/14 03:10:50;;;;;;;1.23;0.80;;;;;;;;;;4971672;28;20096;-61
2021/12/14 03:13:18;;;;;;;3.30;1.20;;;;;;;;;;4965395;28;20023;-61
2021/12/14 03:15:51;;;;;;;7.30;1.60;;;;;;;;;;4969532;28;20090;-60
2021/12/14 03:18:20;;;;;;;4.60;1.17;;;;;;;;;;4972157;28;20031;-62
2021/12/14 03:20:50;;;;;;;3.90;1.20;;;;;;;;;;4971965;28;20106;-59
2021/12/14 03:23:18;;;;;;;0.97;0.80;;;;;;;;;;4974632;28;20034;-59
2021/12/14 03:25:47;;;;;;;4.43;0.93;;;;;;;;;;4974406;28;20058;-59
2021/12/14 03:28:15;;;;;;;4.50;1.83;;;;;;;;;;4973839;28;20034;-59
2021/12/14 03:30:50;;;;;;;4.27;0.97;;;;;;;;;;4974060;28;20493;-60
2021/12/14 03:33:19;;;;;;;4.40;0.95;;;;;;;;;;4968775;28;20548;-60
2021/12/14 03:35:56;;;;;;;1.07;0.50;;;;;;;;;;4968657;28;20125;-59
2021/12/14 03:38:24;;;;;;;4.17;0.87;;;;;;;;;;4969051;28;20109;-60
2021/12/14 03:40:57;;;;;;;2.20;0.97;;;;;;;;;;4968782;28;20923;-59
2021/12/14 03:43:25;;;;;;;19.80;1.67;;;;;;;;;;4972592;28;20045;-59
2021/12/14 03:45:52;;;;;;;2.83;0.80;;;;;;;;;;4974119;28;20111;-59
2021/12/14 03:48:21;;;;;;;1.10;0.37;;;;;;;;;;4974229;28;20115;-59
2021/12/14 03:50:48;;;;;;;1.33;0.43;;;;;;;;;;4974369;28;20031;-59
2021/12/14 03:53:18;;;;;;;2.43;0.50;;;;;;;;;;4973974;28;20496;-59
2021/12/14 03:55:49;;;;;;;0.70;0.40;;;;;;;;;;4969121;28;20125;-59
2021/12/14 03:58:21;;;;;;;2.23;1.03;;;;;;;;;;4968723;28;20085;-59
2021/12/14 04:00:54;;;;;;;3.43;1.63;;;;;;;;;;4968403;28;20034;-59
2021/12/14 04:03:23;;;;;;;2.93;0.90;;;;;;;;;;4968455;28;20106;-59
2021/12/14 04:05:50;;;;;;;2.03;0.90;;;;;;;;;;4973181;28;20054;-59
2021/12/14 04:08:18;;;;;;;1.70;0.70;;;;;;;;;;4973595;28;20081;-59
2021/12/14 04:10:46;;;;;;;2.23;0.70;;;;;;;;;;4973732;28;20027;-59
2021/12/14 04:13:24;;;;;;;5.80;0.80;;;;;;;;;;4973729;28;20118;-59
2021/12/14 04:15:52;;;;;;;3.03;1.20;;;;;;;;;;4973374;28;20031;-59
2021/12/14 04:18:19;;;;;;;5.30;0.70;;;;;;;;;;4968341;28;20031;-59
2021/12/14 04:20:47;;;;;;;8.03;0.93;;;;;;;;;;4967937;28;20038;-60
2021/12/14 04:23:22;;;;;;;2.23;0.57;;;;;;;;;;4967143;28;20085;-60
2021/12/14 04:25:49;;;;;;;2.73;0.63;;;;;;;;;;4967340;28;20045;-60
2021/12/14 04:28:18;;;;;;;4.87;1.63;;;;;;;;;;4972712;28;20089;-60
2021/12/14 04:30:45;;;;;;;5.13;1.10;;;;;;;;;;4972394;28;20031;-62
2021/12/14 04:33:16;;;;;;;1.47;0.70;;;;;;;;;;4972325;28;20030;-60
2021/12/14 04:35:46;;;;;;;1.47;0.87;;;;;;;;;;4972247;28;20433;-61
2021/12/14 04:38:21;;;;;;;1.77;0.90;;;;;;;;;;4971778;28;20022;-60
2021/12/14 04:52:11;;;;;;;1.90;0.70;;;;;;;;;;4972368;28;20045;-60
2021/12/14 04:54:40;;;;;;;1.70;0.77;;;;;;;;;;4971667;28;20019;-60
2021/12/14 04:57:19;;;;;;;1.43;0.80;;;;;;;;;;4972458;28;20058;-61
2021/12/14 04:59:45;;;;;;;2.83;0.87;;;;;;;;;;4973164;28;20027;-60
2021/12/14 05:02:16;;;;;;;1.20;0.80;;;;;;;;;;4968401;28;20011;-61
2021/12/14 05:04:43;;;;;;;1.57;0.90;;;;;;;;;;4967830;28;20030;-60
2021/12/14 05:10:07;;;;;;;3.83;0.80;;;;;;;;;;4958179;28;20368;-60
2021/12/14 05:12:35;;;;;;;3.00;0.80;;;;;;;;;;4976700;28;20030;-60
2021/12/14 05:15:03;;;;;;;1.90;0.80;;;;;;;;;;4976678;28;20027;-61
2021/12/14 05:17:32;;;;;;;0.73;0.47;;;;;;;;;;4976607;28;20027;-61
2021/12/14 05:19:59;;;;;;;1.33;0.77;;;;;;;;;;4977081;28;20031;-60
2021/12/14 05:22:27;;;;;;;1.47;0.90;;;;;;;;;;4976746;28;20019;-60
2021/12/14 05:24:56;;;;;;;2.07;1.07;;;;;;;;;;4971307;28;20027;-60
2021/12/14 05:27:26;;;;;;;2.50;0.93;;;;;;;;;;4971403;28;20034;-60
2021/12/14 05:29:54;;;;;;;3.77;1.67;;;;;;;;;;4971475;28;20442;-60
2021/12/14 05:32:21;;;;;;;6.17;1.63;;;;;;;;;;4970898;28;20506;-60
2021/12/14 05:34:50;;;;;;;5.03;1.43;;;;;;;;;;4976297;28;20073;-61
2021/12/14 05:37:22;;;;;;;2.63;1.07;;;;;;;;;;4976541;28;20058;-60
2021/12/14 05:40:00;;;;;;;3.23;1.40;;;;;;;;;;4976559;28;20030;-60
2021/12/14 05:45:16;;;;;;;2.90;1.17;;;;;;;;;;4974332;28;20504;-60
2021/12/14 05:47:49;;;;;;;1.90;0.90;;;;;;;;;;4971096;28;20023;-60
2021/12/14 05:50:23;;;;;;;5.77;1.13;;;;;;;;;;4971403;28;20078;-60
2021/12/14 05:52:50;;;;;;;3.85;1.40;;;;;;;;;;4971244;28;20351;-60
2021/12/14 05:55:23;;;;;;;1.43;0.70;;;;;;;;;;4972156;28;20018;-60
2021/12/14 05:57:50;;;;;;;2.13;1.00;;;;;;;;;;4976245;28;20097;-60
2021/12/14 06:00:18;;;;;;;3.40;0.90;;;;;;;;;;4976188;28;20031;-61
2021/12/14 06:02:46;;;;;;;3.07;1.23;;;;;;;;;;4975687;28;20169;-60
2021/12/14 06:05:15;;;;;;;2.13;0.87;;;;;;;;;;4975584;28;20466;-60
2021/12/14 06:07:42;;;;;;;3.67;0.83;;;;;;;;;;4973541;28;20378;-60
2021/12/14 06:10:09;;;;;;;4.33;1.10;;;;;;;;;;4970660;28;20035;-60
2021/12/14 06:12:37;;;;;;;3.23;1.23;;;;;;;;;;4969903;28;20062;-60
2021/12/14 06:15:05;;;;;;;2.33;1.13;;;;;;;;;;4970694;28;20031;-60
2021/12/14 06:17:34;;;;;;;1.63;0.90;;;;;;;;;;4971462;28;20038;-60
2021/12/14 06:20:03;;;;;;;3.93;1.03;;;;;;;;;;4975749;28;20121;-60
2021/12/14 06:22:30;;;;;;;1.80;0.87;;;;;;;;;;4976027;28;20031;-60
2021/12/14 06:24:58;;;;;;;2.90;1.10;;;;;;;;;;4975462;28;20037;-60
2021/12/14 06:27:27;;;;;;;1.77;0.93;;;;;;;;;;4975494;28;20054;-60
2021/12/14 06:29:56;;;;;;;3.13;1.10;;;;;;;;;;4972869;28;20504;-60
2021/12/14 06:32:28;;;;;;;3.17;1.23;;;;;;;;;;4969895;28;20487;-60
2021/12/14 06:35:00;;;;;;;3.77;0.97;;;;;;;;;;4970238;28;20062;-60
2021/12/14 06:38:10;;;;;;;3.40;0.87;;;;;;;;;;4970246;28;20125;-60
2021/12/14 06:40:43;;;;;;;9.90;1.10;;;;;;;;;;4958832;28;20468;-60
2021/12/14 06:43:15;;;;;;;2.17;1.00;;;;;;;;;;4975241;28;20035;-60
2021/12/14 06:45:43;;;;;;;1.90;0.80;;;;;;;;;;4975313;28;20034;-60
2021/12/14 06:48:20;;;;;;;3.87;1.20;;;;;;;;;;4959199;28;20161;-60
2021/12/14 06:50:47;;;;;;;1.97;1.13;;;;;;;;;;4975343;28;20018;-60
2021/12/14 06:53:16;;;;;;;4.50;1.00;;;;;;;;;;4970223;28;20030;-60
2021/12/14 06:55:43;;;;;;;3.57;1.47;;;;;;;;;;4969929;28;20030;-60
2021/12/14 06:58:12;;;;;;;4.97;1.60;;;;;;;;;;4969747;28;20273;-60
2021/12/14 07:00:41;;;;;;;4.93;1.33;;;;;;;;;;4969506;28;20061;-60
2021/12/14 07:03:07;;;;;;;3.13;1.57;;;;;;;;;;4973862;28;20106;-60
2021/12/14 07:05:35;;;;;;;2.33;1.30;;;;;;;;;;4975003;28;20485;-60
2021/12/14 07:08:08;;;;;;;4.33;1.20;;;;;;;;;;4974969;28;20364;-60
2021/12/14 07:10:36;;;;;;;3.53;1.30;;;;;;;;;;4974865;28;20023;-60
2021/12/14 07:13:09;;;;;;;5.10;1.00;;;;;;;;;;4974709;28;20327;-60
2021/12/14 07:15:36;;;;;;;2.10;0.97;;;;;;;;;;4969471;28;20268;-60
2021/12/14 07:18:05;;;;;;;2.23;1.10;;;;;;;;;;4969386;28;20303;-60
2021/12/14 07:20:33;;;;;;;3.53;1.30;;;;;;;;;;4969366;28;20343;-60
2021/12/14 07:23:02;;;;;;;4.57;1.83;;;;;;;;;;4969487;28;20280;-60
2021/12/14 07:25:32;;;;;;;3.73;1.00;;;;;;;;;;4974217;28;20267;-60
2021/12/14 07:28:00;;;;;;;5.67;0.87;;;;;;;;;;4973928;28;20267;-60
2021/12/14 07:30:27;;;;;;;2.80;1.10;;;;;;;;;;4973940;28;20277;-60
2021/12/14 07:33:05;;;;;;;4.53;1.17;;;;;;;;;;4974574;28;20264;-60
2021/12/14 07:36:01;;;;;;;2.63;1.13;;;;;;;;;;4973834;28;20265;-60
2021/12/14 07:38:27;;;;;;;;;;;;;;;;;;4956680;28;20272;-60
2021/12/14 07:41:06;;;;;;;2.37;0.90;;;;;;;;;;4968791;28;20389;-60
2021/12/14 07:43:35;;;;;;;2.33;0.83;;;;;;;;;;4969384;28;20335;-59
2021/12/14 07:46:12;;;;;;;3.27;0.90;;;;;;;;;;4953366;28;20272;-60
2021/12/14 07:48:49;;;;;;;1.27;0.80;;;;;;;;;;4974102;28;20331;-60
2021/12/14 07:51:17;;;;;;;1.73;0.97;;;;;;;;;;4973777;28;20265;-60
2021/12/14 07:53:49;;;;;;;1.60;0.90;;;;;;;;;;4973874;28;20265;-60
2021/12/14 07:56:36;;;;;;;1.83;0.90;;;;;;;;;;4974015;28;20288;-60
2021/12/14 07:59:08;;;;;;;3.07;1.10;;;;;;;;;;4969404;28;20677;-60
2021/12/14 08:01:35;;;;;;;5.90;1.10;;;;;;;;;;4968235;28;20273;-60
2021/12/14 08:04:12;;;;;;;2.83;1.03;;;;;;;;;;4968239;28;20283;-60
2021/12/14 08:06:47;;;;;;;6.50;1.03;;;;;;;;;;4968476;28;20276;-60
2021/12/14 08:09:17;;;;;;;1.92;1.10;;;;;;;;;;4964817;28;20273;-60
2021/12/14 08:11:48;;;;;;;2.83;1.40;;;;;;;;;;4973871;28;20066;-59
2021/12/14 08:14:19;;;;;;;2.83;1.20;;;;;;;;;;4973269;28;20304;-59
2021/12/14 08:16:49;;;;;;;3.17;1.30;;;;;;;;;;4973630;28;20362;-60
2021/12/14 08:19:36;;;;;;;3.17;1.97;;;;;;;;;;4973279;28;20269;-59
2021/12/14 08:22:07;;;;;;;3.87;1.30;;;;;;;;;;4968132;28;20272;-60
2021/12/14 08:24:34;;;;;;;2.97;1.00;;;;;;;;;;4967905;28;20279;-60
2021/12/14 08:27:02;;;;;;;3.70;1.43;;;;;;;;;;4968177;28;20261;-59
2021/12/14 08:29:30;;;;;;;2.70;1.43;;;;;;;;;;4968108;28;20360;-59
2021/12/14 08:32:09;;;;;;;3.07;1.30;;;;;;;;;;4973406;28;20256;-59
2021/12/14 08:34:37;;;;;;;3.17;1.30;;;;;;;;;;4973681;28;20273;-60
2021/12/14 08:37:08;;;;;;;4.60;1.50;;;;;;;;;;4972895;28;20379;-60
2021/12/14 08:39:40;;;;;;;4.20;1.50;;;;;;;;;;4973135;28;20355;-59
2021/12/14 08:42:14;;;;;;;2.30;1.10;;;;;;;;;;4972281;28;20304;-59
2021/12/14 08:44:50;;;;;;;2.53;1.10;;;;;;;;;;4968156;28;20268;-60
2021/12/14 08:47:23;;;;;;;2.67;1.33;;;;;;;;;;4968321;28;20264;-59
2021/12/14 08:49:50;;;;;;;4.07;2.10;;;;;;;;;;4967953;28;20676;-59
2021/12/14 08:52:17;;;;;;;3.13;1.60;;;;;;;;;;4968298;28;20782;-60
2021/12/14 08:54:44;;;;;;;7.53;1.47;;;;;;;;;;4973300;28;20774;-59
2021/12/14 08:57:16;;;;;;;6.50;1.50;;;;;;;;;;4973171;28;20367;-59
2021/12/14 08:59:44;;;;;;;4.53;1.40;;;;;;;;;;4973082;28;20265;-60
2021/12/14 09:02:13;;;;;;;2.90;1.33;;;;;;;;;;4972848;28;20269;-60
2021/12/14 09:04:43;;;;;;;4.17;1.70;;;;;;;;;;4971480;28;20334;-59
2021/12/14 09:07:12;;;;;;;2.27;1.27;;;;;;;;;;4967693;28;20648;-60
2021/12/14 09:09:40;;;;;;;4.80;1.40;;;;;;;;;;4967567;28;20273;-59
2021/12/14 09:12:10;;;;;;;3.10;1.40;;;;;;;;;;4967377;28;20355;-59
2021/12/14 09:14:37;;;;;;;2.00;1.03;;;;;;;;;;4969076;28;20352;-60
2021/12/14 09:17:06;;;;;;;4.07;1.30;;;;;;;;;;4973300;28;20321;-60
2021/12/14 09:19:37;;;;;;;4.53;1.57;;;;;;;;;;4973144;28;20347;-59
2021/12/14 09:22:08;;;;;;;3.00;1.37;;;;;;;;;;4972968;28;20264;-59
2021/12/14 09:24:35;;;;;;;2.70;1.20;;;;;;;;;;4957720;28;20324;-59
2021/12/14 09:27:04;;;;;;;5.33;1.27;;;;;;;;;;4970850;28;20273;-59
2021/12/14 09:29:31;;;;;;;2.40;1.13;;;;;;;;;;4967420;28;20295;-59
2021/12/14 09:31:59;;;;;;;3.23;1.33;;;;;;;;;;4967567;28;20272;-60
2021/12/14 09:34:29;;;;;;;3.03;1.00;;;;;;;;;;4967785;28;20277;-59
2021/12/14 09:36:58;;;;;;;1.23;0.73;;;;;;;;;;4968841;28;20285;-59
2021/12/14 09:39:29;;;;;;;2.53;1.10;;;;;;;;;;4973047;28;20272;-59
2021/12/14 09:41:56;;;;;;;2.70;1.27;;;;;;;;;;4972934;28;20265;-59
2021/12/14 09:44:25;;;;;;;3.97;1.40;;;;;;;;;;4972679;28;20332;-59
2021/12/14 09:46:53;;;;;;;2.10;1.40;;;;;;;;;;4972507;28;20264;-59
2021/12/14 09:49:20;;;;;;;2.67;1.30;;;;;;;;;;4969881;28;20311;-59
2021/12/14 09:51:49;;;;;;;4.33;1.40;;;;;;;;;;4967833;28;20272;-59
2021/12/14 09:54:18;;;;;;;2.07;1.00;;;;;;;;;;4970910;28;20359;-59
2021/12/14 09:56:47;;;;;;;3.97;1.07;;;;;;;;;;4970763;28;20768;-59
2021/12/14 09:59:14;;;;;;;4.47;1.20;;;;;;;;;;4973226;28;20304;-59
2021/12/14 10:01:41;;;;;;;1.90;1.00;;;;;;;;;;4975819;28;20355;-59
2021/12/14 10:04:10;;;;;;;6.20;1.30;;;;;;;;;;4975870;28;20279;-59
2021/12/14 10:06:38;;;;;;;3.73;1.40;;;;;;;;;;4975792;28;20261;-59
2021/12/14 10:09:07;;;;;;;3.40;1.20;;;;;;;;;;4975920;28;20268;-59
2021/12/14 10:11:47;;;;;;;1.73;0.93;;;;;;;;;;4973210;28;20292;-59
2021/12/14 10:14:14;;;;;;;3.50;1.30;;;;;;;;;;4970092;28;20272;-59
2021/12/14 10:16:41;;;;;;;2.77;1.50;;;;;;;;;;4970124;28;20367;-59
2021/12/14 10:19:12;;;;;;;2.33;1.20;;;;;;;;;;4970464;28;20303;-60
2021/12/14 10:21:46;;;;;;;2.37;0.87;;;;;;;;;;4973056;28;20307;-59
2021/12/14 10:24:12;;;;;;;3.10;1.30;;;;;;;;;;4975685;28;20360;-59
2021/12/14 10:26:43;;;;;;;4.90;1.23;;;;;;;;;;4975579;28;20288;-59
2021/12/14 10:29:10;;;;;;;2.00;1.10;;;;;;;;;;4975553;28;20273;-59
2021/12/14 10:31:43;;;;;;;2.60;1.20;;;;;;;;;;4975465;28;20787;-59
2021/12/14 10:34:14;;;;;;;2.77;1.30;;;;;;;;;;4971497;28;20368;-59
2021/12/14 10:36:45;;;;;;;2.30;1.30;;;;;;;;;;4970368;28;20322;-59
2021/12/14 10:44:37;;;;;;;2.17;1.00;;;;;;;;;;4974485;28;20276;-59
2021/12/14 10:47:04;;;;;;;2.27;0.97;;;;;;;;;;4974853;28;20300;-59
2021/12/14 10:49:31;;;;;;;1.80;0.90;;;;;;;;;;4975094;28;20283;-59
2021/12/14 10:52:00;;;;;;;2.33;1.13;;;;;;;;;;4974960;28;20810;-59
2021/12/14 10:54:27;;;;;;;1.37;0.83;;;;;;;;;;4974842;28;20260;-59
2021/12/14 10:56:57;;;;;;;2.10;1.00;;;;;;;;;;4969998;28;20802;-59
2021/12/14 10:59:28;;;;;;;1.73;1.20;;;;;;;;;;4969798;28;20365;-59
2021/12/14 11:01:55;;;;;;;1.40;0.80;;;;;;;;;;4969752;28;20359;-59
2021/12/14 11:04:26;;;;;;;3.07;0.90;;;;;;;;;;4968664;28;20305;-59
2021/12/14 11:06:57;;;;;;;0.97;0.67;;;;;;;;;;4974636;28;20271;-59
2021/12/14 11:09:52;;;;;;;2.60;0.90;;;;;;;;;;4974801;28;20265;-59
2021/12/14 11:12:21;;;;;;;2.40;0.63;;;;;;;;;;4974680;28;20272;-59
2021/12/14 11:14:51;;;;;;;1.70;0.80;;;;;;;;;;4974923;28;20280;-59
2021/12/14 11:20:11;;;;;;;1.88;0.77;;;;;;;;;;4969462;28;20312;-59
2021/12/14 11:22:44;;;;;;;2.63;1.05;;;;;;;;;;4969294;28;20046;-59
2021/12/14 11:25:17;;;;;;;1.30;0.80;;;;;;;;;;4969343;28;20022;-59
2021/12/14 11:27:45;;;;;;;2.57;1.27;;;;;;;;;;4971015;28;20268;-59
2021/12/14 11:30:21;;;;;;;2.53;1.00;;;;;;;;;;4974483;28;20312;-59
2021/12/14 11:33:06;;;;;;;1.90;0.80;;;;;;;;;;4973921;28;20264;-58
2021/12/14 11:35:34;;;;;;;2.00;0.60;;;;;;;;;;4974522;28;20261;-58
2021/12/14 11:38:02;;;;;;;3.07;0.90;;;;;;;;;;4974554;28;20038;-59
2021/12/14 11:40:30;;;;;;;1.30;0.80;;;;;;;;;;4970617;28;21130;-59
2021/12/14 11:43:14;;;;;;;3.80;1.20;;;;;;;;;;4969067;28;20253;-59
2021/12/14 11:45:47;;;;;;;1.67;0.97;;;;;;;;;;4969126;28;21594;-59
2021/12/14 11:48:15;;;;;;;1.20;0.83;;;;;;;;;;4968812;28;20762;-59
2021/12/14 11:50:46;;;;;;;1.53;0.80;;;;;;;;;;4972525;28;20359;-59
2021/12/14 11:53:17;;;;;;;3.07;1.10;;;;;;;;;;4974422;28;20265;-59
2021/12/14 11:55:50;;;;;;;1.90;0.90;;;;;;;;;;4973934;28;20277;-59
2021/12/14 11:58:19;;;;;;;2.73;1.23;;;;;;;;;;4973319;28;20279;-59
2021/12/14 12:01:06;;;;;;;2.33;1.00;;;;;;;;;;4973741;28;20275;-59
2021/12/14 12:03:38;;;;;;;3.90;1.23;;;;;;;;;;4968415;28;20331;-59
2021/12/14 12:06:10;;;;;;;1.17;0.87;;;;;;;;;;4968305;28;20268;-58
2021/12/14 12:11:33;;;;;;;1.60;0.80;;;;;;;;;;4969350;28;20264;-59
2021/12/14 12:14:00;;;;;;;1.33;0.80;;;;;;;;;;4974090;28;20265;-58
2021/12/14 12:16:27;;;;;;;1.50;0.80;;;;;;;;;;4972860;28;20289;-58
2021/12/14 12:19:16;;;;;;;4.30;1.20;;;;;;;;;;4973840;28;20260;-59
2021/12/14 12:21:45;;;;;;;1.90;1.20;;;;;;;;;;4973928;28;20257;-58
2021/12/14 12:24:34;;;;;;;5.60;1.43;;;;;;;;;;4971388;28;20351;-59
2021/12/14 12:27:19;;;;;;;3.10;0.90;;;;;;;;;;4967913;28;20264;-59
2021/12/14 12:29:46;;;;;;;2.63;1.20;;;;;;;;;;4968142;28;20273;-59
2021/12/14 12:32:21;;;;;;;2.10;0.90;;;;;;;;;;4967677;28;20478;-59
2021/12/14 12:34:50;;;;;;;9.67;2.57;;;;;;;;;;4971488;28;20276;-59
2021/12/14 12:37:17;;;;;;;5.10;2.20;;;;;;;;;;4973187;28;20356;-58
2021/12/14 12:39:52;;;;;;;7.37;2.20;;;;;;;;;;4973703;28;20304;-59
2021/12/14 12:42:19;;;;;;;5.77;1.80;;;;;;;;;;4973046;28;20774;-59
2021/12/14 12:44:46;;;;;;;8.43;1.80;;;;;;;;;;4973583;28;20118;-58
2021/12/14 12:47:23;;;;;;;4.50;1.97;;;;;;;;;;4968969;28;20770;-58
2021/12/14 12:49:52;;;;;;;4.00;1.87;;;;;;;;;;4967815;28;20676;-59
2021/12/14 12:52:31;;;;;;;12.50;1.80;;;;;;;;;;4968015;28;20271;-59
2021/12/14 12:55:02;;;;;;;3.77;1.47;;;;;;;;;;4967749;28;20277;-59
2021/12/14 12:57:36;;;;;;;3.70;1.40;;;;;;;;;;4972672;28;20296;-58
2021/12/14 13:00:25;;;;;;;7.30;1.77;;;;;;;;;;4973050;28;20319;-59
2021/12/14 13:02:54;;;;;;;5.87;1.53;;;;;;;;;;4973699;28;20612;-58
2021/12/14 13:05:39;;;;;;;9.07;1.60;;;;;;;;;;4973079;28;20347;-59
2021/12/14 13:08:18;;;;;;;6.32;1.48;;;;;;;;;;4970854;28;20352;-59
2021/12/14 13:11:04;;;;;;;5.07;1.70;;;;;;;;;;4967501;28;20019;-58
2021/12/14 13:13:33;;;;;;;6.07;2.10;;;;;;;;;;4967423;28;20764;-58
2021/12/14 13:16:15;;;;;;;3.67;1.17;;;;;;;;;;4967634;28;20332;-58
2021/12/14 13:19:00;;;;;;;3.47;0.93;;;;;;;;;;4971031;28;20604;-59
2021/12/14 13:21:47;;;;;;;9.23;1.60;;;;;;;;;;4972736;28;20277;-58
2021/12/14 13:24:26;;;;;;;2.63;1.30;;;;;;;;;;4972409;28;20110;-58
2021/12/14 13:27:08;;;;;;;5.07;1.20;;;;;;;;;;4973632;28;20277;-58
2021/12/14 13:29:34;;;;;;;15.10;5.97;;;;;;;;;;4976590;28;20728;-59
2021/12/14 13:32:01;;;;;;;13.93;4.97;;;;;;;;;;4970795;28;20348;-59
2021/12/14 13:34:33;;;;;;;6.33;2.73;;;;;;;;;;4971432;28;20275;-59
2021/12/14 13:37:00;;;;;;;9.50;4.40;;;;;;;;;;4970757;28;20363;-58
2021/12/14 13:39:27;;;;;;;9.30;5.20;;;;;;;;;;4969935;28;20281;-59
2021/12/14 13:42:03;;;;;;;17.33;6.83;;;;;;;;;;4975119;28;20276;-59
2021/12/14 13:44:32;;;;;;;10.30;3.73;;;;;;;;;;4974828;28;20605;-59
2021/12/14 13:47:00;;;;;;;7.80;3.43;;;;;;;;;;4974439;28;20380;-59
2021/12/14 13:49:28;;;;;;;5.70;3.00;;;;;;;;;;4974899;28;20324;-59
2021/12/14 13:51:55;;;;;;;5.53;2.13;;;;;;;;;;4974165;28;20277;-59
2021/12/14 13:54:22;;;;;;;2.80;1.57;;;;;;;;;;4969255;28;20352;-59
2021/12/14 13:56:50;;;;;;;4.20;2.10;;;;;;;;;;4969090;28;20305;-59
2021/12/14 13:59:17;;;;;;;2.57;1.57;;;;;;;;;;4969383;28;20272;-59
2021/12/14 14:01:49;;;;;;;3.57;2.07;;;;;;;;;;4969570;28;20271;-59
2021/12/14 14:04:18;;;;;;;9.20;2.83;;;;;;;;;;4974880;28;20256;-59
2021/12/14 14:06:46;;;;;;;5.23;2.63;;;;;;;;;;4974090;28;20269;-59
2021/12/14 14:09:27;;;;;;;7.40;2.80;;;;;;;;;;4974610;28;20732;-59
2021/12/14 14:11:56;;;;;;;15.83;7.43;;;;;;;;;;4974764;28;20268;-59
2021/12/14 14:14:28;;;;;;;12.37;6.50;;;;;;;;;;4973058;28;20248;-60
2021/12/14 14:17:04;;;;;;;19.67;9.73;;;;;;;;;;4969068;28;20293;-59
2021/12/14 14:19:41;;;;;;;16.23;8.57;;;;;;;;;;4968402;28;20239;-60
2021/12/14 14:22:09;;;;;;;13.40;5.77;;;;;;;;;;4969328;28;20023;-59
2021/12/14 14:24:37;;;;;;;9.97;4.10;;;;;;;;;;4971090;28;20031;-59
2021/12/14 14:27:06;;;;;;;9.37;3.60;;;;;;;;;;4974574;28;20031;-59
2021/12/14 14:29:43;;;;;;;6.20;2.90;;;;;;;;;;4974498;28;20023;-60
2021/12/14 14:32:52;;;;;;;6.93;3.60;;;;;;;;;;4974370;28;20031;-60
2021/12/14 14:35:01;;;;;;;4.80;2.43;;;;;;;;;;4966442;28;20038;-59
2021/12/14 14:37:27;;;;;;;4.53;1.77;;;;;;;;;;4885294;28;2479298;-60
2021/12/14 14:39:56;;;;;;;4.37;1.93;;;;;;;;;;4969805;28;20031;-60
2021/12/14 14:42:28;;;;;;;3.80;1.20;;;;;;;;;;4970007;28;20066;-59
2021/12/14 14:44:58;;;;;;;3.43;1.40;;;;;;;;;;4969851;28;20074;-60
2021/12/14 14:47:32;;;;;;;2.30;1.40;;;;;;;;;;4973679;28;20480;-59
2021/12/14 14:50:06;;;;;;;4.15;1.10;;;;;;;;;;4974853;28;20057;-59
2021/12/14 14:52:37;;;;;;;2.50;1.27;;;;;;;;;;4974616;28;20034;-59
2021/12/14 14:55:10;;;;;;;3.00;1.40;;;;;;;;;;4975261;28;20092;-59
2021/12/14 14:57:39;;;;;;;3.07;1.30;;;;;;;;;;4974739;28;20038;-60
2021/12/14 15:00:07;;;;;;;2.87;1.27;;;;;;;;;;4969407;28;20019;-60
2021/12/14 15:02:50;;;;;;;3.67;1.43;;;;;;;;;;4969468;28;20073;-60
2021/12/14 15:05:20;;;;;;;7.33;1.47;;;;;;;;;;4969091;28;20504;-60
2021/12/14 15:07:49;;;;;;;4.10;1.27;;;;;;;;;;4969570;28;20072;-59
2021/12/14 15:10:17;;;;;;;3.33;1.77;;;;;;;;;;4974683;28;20046;-60
2021/12/14 15:12:44;;;;;;;5.33;1.80;;;;;;;;;;4975077;28;20023;-60
2021/12/14 15:15:12;;;;;;;6.03;1.50;;;;;;;;;;4974693;28;20065;-60
2021/12/14 15:17:45;;;;;;;6.40;1.57;;;;;;;;;;4955764;29;20035;-59
2021/12/14 15:20:27;;;;;;;1.77;1.30;;;;;;;;;;4966055;28;20038;-60
2021/12/14 15:23:01;;;;;;;4.37;1.33;;;;;;;;;;4969361;28;20030;-59
2021/12/14 15:25:29;;;;;;;2.45;1.23;;;;;;;;;;4969061;28;20069;-60
2021/12/14 15:28:00;;;;;;;3.43;1.40;;;;;;;;;;4969032;28;20081;-60
2021/12/14 15:30:30;;;;;;;3.73;1.50;;;;;;;;;;4970415;28;20077;-60
2021/12/14 15:32:57;;;;;;;3.77;1.67;;;;;;;;;;4974449;28;20058;-60
2021/12/14 15:35:51;;;;;;;3.13;1.50;;;;;;;;;;4974415;28;20457;-59
2021/12/14 15:38:26;;;;;;;3.70;1.70;;;;;;;;;;4974290;28;20049;-60